Terminal Aerodrome Forecast
Issued by NWS

Home | Current Version | Previous Version | Text Only | Print | Product List | Glossary On
Versions: 1 2 3 4 5 6 7 8 9 10 11 12 13
676
FTUS43 KIWX 280526
TAFSBN
TAF
KSBN 280526Z 2806/0106 16007KT P6SM VCSH BKN100
     FM280900 15010KT 6SM SHRA OVC050
      TEMPO 2809/2813 3SM TSRA OVC030CB
     FM281300 18011KT P6SM OVC020
     FM282100 19012KT P6SM OVC010
     FM010000 20011KT 1SM SHRA OVC005
     FM010300 21020G32KT P6SM SHRA OVC030
     FM010500 21028G40KT 2SM +TSRA OVC010CB=

USA.gov is the U.S. government's official web portal to all federal, state and local government web resources and services.